sensor_id;sensor_type;location;lat;lon;timestamp;pressure;altitude;pressure_sealevel;temperature;humidity
10060;BME280;5069;49.306;8.636;2022-10-31T00:01:57;100936.13;;;14.20;100.00
10060;BME280;5069;49.306;8.636;2022-10-31T00:04:58;100930.78;;;14.22;100.00
10060;BME280;5069;49.306;8.636;2022-10-31T00:08:00;100929.91;;;14.21;100.00
10060;BME280;5069;49.306;8.636;2022-10-31T00:11:01;100929.00;;;14.22;100.00
10060;BME280;5069;49.306;8.636;2022-10-31T00:14:03;100924.63;;;14.21;100.00
10060;BME280;5069;49.306;8.636;2022-10-31T00:17:04;100931.75;;;14.19;100.00
10060;BME280;5069;49.306;8.636;2022-10-31T00:20:06;100926.44;;;14.19;100.00
10060;BME280;5069;49.306;8.636;2022-10-31T00:23:09;100926.59;;;14.16;100.00
10060;BME280;5069;49.306;8.636;2022-10-31T00:26:11;100926.63;;;14.15;100.00
10060;BME280;5069;49.306;8.636;2022-10-31T00:29:13;100929.34;;;14.13;100.00
10060;BME280;5069;49.306;8.636;2022-10-31T00:32:15;100921.28;;;14.16;100.00
10060;BME280;5069;49.306;8.636;2022-10-31T00:35:16;100921.72;;;14.05;100.00
10060;BME280;5069;49.306;8.636;2022-10-31T00:38:19;100927.19;;;14.01;100.00
10060;BME280;5069;49.306;8.636;2022-10-31T00:41:20;100923.75;;;13.99;100.00
10060;BME280;5069;49.306;8.636;2022-10-31T00:44:22;100928.22;;;13.97;100.00
10060;BME280;5069;49.306;8.636;2022-10-31T00:47:23;100923.16;;;13.91;100.00
10060;BME280;5069;49.306;8.636;2022-10-31T00:50:24;100923.41;;;13.85;100.00
10060;BME280;5069;49.306;8.636;2022-10-31T00:53:26;100922.66;;;13.81;100.00
10060;BME280;5069;49.306;8.636;2022-10-31T00:56:28;100932.16;;;13.87;100.00
10060;BME280;5069;49.306;8.636;2022-10-31T00:59:30;100920.69;;;13.86;100.00
10060;BME280;5069;49.306;8.636;2022-10-31T01:02:31;100924.03;;;13.91;100.00
10060;BME280;5069;49.306;8.636;2022-10-31T01:05:34;100925.03;;;13.89;100.00
10060;BME280;5069;49.306;8.636;2022-10-31T01:08:37;100930.31;;;13.89;100.00
10060;BME280;5069;49.306;8.636;2022-10-31T01:11:38;100926.91;;;13.85;100.00
10060;BME280;5069;49.306;8.636;2022-10-31T01:14:43;100935.97;;;13.80;100.00
10060;BME280;5069;49.306;8.636;2022-10-31T01:17:46;100944.00;;;13.78;100.00
10060;BME280;5069;49.306;8.636;2022-10-31T01:21:00;100937.00;;;13.76;100.00
10060;BME280;5069;49.306;8.636;2022-10-31T01:24:02;100940.41;;;13.79;100.00
10060;BME280;5069;49.306;8.636;2022-10-31T01:27:04;100937.66;;;13.82;100.00
10060;BME280;5069;49.306;8.636;2022-10-31T01:30:08;100938.56;;;13.81;100.00
10060;BME280;5069;49.306;8.636;2022-10-31T01:33:09;100938.75;;;13.77;100.00
10060;BME280;5069;49.306;8.636;2022-10-31T01:36:26;100935.19;;;13.78;100.00
10060;BME280;5069;49.306;8.636;2022-10-31T01:39:28;100937.09;;;13.73;100.00
10060;BME280;5069;49.306;8.636;2022-10-31T01:42:29;100941.84;;;13.64;100.00
10060;BME280;5069;49.306;8.636;2022-10-31T01:45:31;100945.47;;;13.62;100.00
10060;BME280;5069;49.306;8.636;2022-10-31T01:48:32;100947.19;;;13.63;100.00
10060;BME280;5069;49.306;8.636;2022-10-31T01:51:36;100941.13;;;13.61;100.00
10060;BME280;5069;49.306;8.636;2022-10-31T01:54:43;100941.44;;;13.52;100.00
10060;BME280;5069;49.306;8.636;2022-10-31T01:57:48;100933.75;;;13.44;100.00
10060;BME280;5069;49.306;8.636;2022-10-31T02:00:55;100932.31;;;13.36;100.00
10060;BME280;5069;49.306;8.636;2022-10-31T02:04:04;100939.66;;;13.28;100.00
10060;BME280;5069;49.306;8.636;2022-10-31T02:07:18;100930.28;;;13.19;100.00
10060;BME280;5069;49.306;8.636;2022-10-31T02:10:24;100934.94;;;13.11;100.00
10060;BME280;5069;49.306;8.636;2022-10-31T02:13:27;100934.06;;;13.12;100.00
10060;BME280;5069;49.306;8.636;2022-10-31T02:16:30;100942.78;;;13.15;100.00
10060;BME280;5069;49.306;8.636;2022-10-31T02:19:53;100933.03;;;13.16;100.00
10060;BME280;5069;49.306;8.636;2022-10-31T02:23:40;100935.81;;;13.13;100.00
10060;BME280;5069;49.306;8.636;2022-10-31T02:26:41;100932.94;;;13.19;100.00
10060;BME280;5069;49.306;8.636;2022-10-31T02:30:05;100934.88;;;13.14;100.00
10060;BME280;5069;49.306;8.636;2022-10-31T02:33:22;100934.19;;;13.07;100.00
10060;BME280;5069;49.306;8.636;2022-10-31T02:36:34;100922.56;;;13.11;100.00
10060;BME280;5069;49.306;8.636;2022-10-31T02:39:54;100917.22;;;13.14;100.00
10060;BME280;5069;49.306;8.636;2022-10-31T02:43:21;100920.63;;;13.18;100.00
10060;BME280;5069;49.306;8.636;2022-10-31T02:46:28;100925.91;;;13.18;100.00
10060;BME280;5069;49.306;8.636;2022-10-31T02:50:04;100907.44;;;13.16;100.00
10060;BME280;5069;49.306;8.636;2022-10-31T02:53:07;100909.22;;;13.16;100.00
10060;BME280;5069;49.306;8.636;2022-10-31T02:56:19;100919.91;;;13.13;100.00
10060;BME280;5069;49.306;8.636;2022-10-31T02:59:21;100917.16;;;13.16;100.00
10060;BME280;5069;49.306;8.636;2022-10-31T03:12:57;100924.56;;;13.05;100.00
10060;BME280;5069;49.306;8.636;2022-10-31T03:19:12;100924.09;;;12.94;100.00
10060;BME280;5069;49.306;8.636;2022-10-31T03:22:20;100923.50;;;12.86;100.00
10060;BME280;5069;49.306;8.636;2022-10-31T03:25:23;100918.97;;;12.89;100.00
10060;BME280;5069;49.306;8.636;2022-10-31T03:28:36;100917.13;;;12.91;100.00
10060;BME280;5069;49.306;8.636;2022-10-31T03:31:59;100923.28;;;12.92;100.00
10060;BME280;5069;49.306;8.636;2022-10-31T03:35:03;100921.44;;;12.94;100.00
10060;BME280;5069;49.306;8.636;2022-10-31T03:38:07;100918.66;;;12.98;100.00
10060;BME280;5069;49.306;8.636;2022-10-31T03:41:13;100917.66;;;13.01;100.00
10060;BME280;5069;49.306;8.636;2022-10-31T03:44:20;100915.84;;;13.03;100.00
10060;BME280;5069;49.306;8.636;2022-10-31T03:47:31;100918.72;;;12.97;100.00
10060;BME280;5069;49.306;8.636;2022-10-31T03:50:41;100911.63;;;12.97;100.00
10060;BME280;5069;49.306;8.636;2022-10-31T04:00:13;100910.84;;;12.94;100.00
10060;BME280;5069;49.306;8.636;2022-10-31T04:03:22;100908.06;;;12.98;100.00
10060;BME280;5069;49.306;8.636;2022-10-31T04:06:27;100912.50;;;12.98;100.00
10060;BME280;5069;49.306;8.636;2022-10-31T04:09:31;100903.53;;;13.02;100.00
10060;BME280;5069;49.306;8.636;2022-10-31T04:12:34;100896.28;;;13.07;100.00
10060;BME280;5069;49.306;8.636;2022-10-31T04:15:54;100896.31;;;13.05;100.00
10060;BME280;5069;49.306;8.636;2022-10-31T04:18:56;100894.59;;;13.04;100.00
10060;BME280;5069;49.306;8.636;2022-10-31T04:21:58;100896.28;;;13.07;100.00
10060;BME280;5069;49.306;8.636;2022-10-31T04:24:59;100895.69;;;12.99;100.00
10060;BME280;5069;49.306;8.636;2022-10-31T04:28:01;100892.13;;;13.00;100.00
10060;BME280;5069;49.306;8.636;2022-10-31T04:31:04;100895.75;;;12.97;100.00
10060;BME280;5069;49.306;8.636;2022-10-31T04:34:10;100887.72;;;12.99;100.00
10060;BME280;5069;49.306;8.636;2022-10-31T04:37:12;100888.91;;;12.92;100.00
10060;BME280;5069;49.306;8.636;2022-10-31T04:40:13;100892.63;;;12.86;100.00
10060;BME280;5069;49.306;8.636;2022-10-31T04:43:38;100891.94;;;12.81;100.00
10060;BME280;5069;49.306;8.636;2022-10-31T04:46:39;100896.59;;;12.73;100.00
10060;BME280;5069;49.306;8.636;2022-10-31T04:49:42;100904.69;;;12.68;100.00
10060;BME280;5069;49.306;8.636;2022-10-31T04:52:46;100896.16;;;12.60;100.00
10060;BME280;5069;49.306;8.636;2022-10-31T04:55:51;100892.72;;;12.58;100.00
10060;BME280;5069;49.306;8.636;2022-10-31T04:58:56;100892.81;;;12.55;100.00
10060;BME280;5069;49.306;8.636;2022-10-31T05:01:59;100898.75;;;12.62;100.00
10060;BME280;5069;49.306;8.636;2022-10-31T05:05:29;100905.66;;;12.66;100.00
10060;BME280;5069;49.306;8.636;2022-10-31T05:08:33;100896.06;;;12.63;100.00
10060;BME280;5069;49.306;8.636;2022-10-31T05:11:38;100904.78;;;12.65;100.00
10060;BME280;5069;49.306;8.636;2022-10-31T05:14:58;100910.00;;;12.68;100.00
10060;BME280;5069;49.306;8.636;2022-10-31T05:18:17;100909.88;;;12.71;100.00
10060;BME280;5069;49.306;8.636;2022-10-31T05:21:42;100910.69;;;12.73;100.00
10060;BME280;5069;49.306;8.636;2022-10-31T05:24:44;100903.78;;;12.69;100.00
10060;BME280;5069;49.306;8.636;2022-10-31T05:27:50;100914.56;;;12.63;100.00
10060;BME280;5069;49.306;8.636;2022-10-31T05:30:51;100913.38;;;12.47;100.00
10060;BME280;5069;49.306;8.636;2022-10-31T05:33:54;100906.25;;;12.21;100.00
10060;BME280;5069;49.306;8.636;2022-10-31T05:37:19;100897.06;;;12.07;100.00
10060;BME280;5069;49.306;8.636;2022-10-31T05:40:21;100892.69;;;12.06;100.00
10060;BME280;5069;49.306;8.636;2022-10-31T05:43:23;100896.13;;;12.08;100.00
10060;BME280;5069;49.306;8.636;2022-10-31T05:46:24;100895.22;;;12.09;100.00
10060;BME280;5069;49.306;8.636;2022-10-31T05:49:55;100896.22;;;12.05;100.00
10060;BME280;5069;49.306;8.636;2022-10-31T05:53:08;100891.97;;;12.00;100.00
10060;BME280;5069;49.306;8.636;2022-10-31T05:56:11;100892.16;;;11.94;100.00
10060;BME280;5069;49.306;8.636;2022-10-31T05:59:14;100891.25;;;11.95;100.00
10060;BME280;5069;49.306;8.636;2022-10-31T06:02:15;100898.25;;;11.96;100.00
10060;BME280;5069;49.306;8.636;2022-10-31T06:05:51;100897.44;;;11.94;100.00
10060;BME280;5069;49.306;8.636;2022-10-31T06:08:58;100903.94;;;11.84;100.00
10060;BME280;5069;49.306;8.636;2022-10-31T06:12:00;100897.78;;;11.84;100.00
10060;BME280;5069;49.306;8.636;2022-10-31T06:15:22;100907.38;;;11.86;100.00
10060;BME280;5069;49.306;8.636;2022-10-31T06:18:26;100913.16;;;11.68;100.00
10060;BME280;5069;49.306;8.636;2022-10-31T06:21:29;100909.97;;;11.57;100.00
10060;BME280;5069;49.306;8.636;2022-10-31T06:24:30;100913.56;;;11.56;100.00
10060;BME280;5069;49.306;8.636;2022-10-31T06:27:38;100915.19;;;11.60;100.00
10060;BME280;5069;49.306;8.636;2022-10-31T06:30:46;100908.16;;;11.59;100.00
10060;BME280;5069;49.306;8.636;2022-10-31T06:33:48;100908.84;;;11.66;100.00
10060;BME280;5069;49.306;8.636;2022-10-31T06:36:49;100907.81;;;11.71;100.00
10060;BME280;5069;49.306;8.636;2022-10-31T06:39:54;100909.41;;;11.78;100.00
10060;BME280;5069;49.306;8.636;2022-10-31T06:42:59;100914.50;;;11.84;100.00
10060;BME280;5069;49.306;8.636;2022-10-31T06:46:02;100904.88;;;11.82;100.00
10060;BME280;5069;49.306;8.636;2022-10-31T06:49:08;100900.28;;;11.88;100.00
10060;BME280;5069;49.306;8.636;2022-10-31T06:52:23;100899.09;;;11.97;100.00
10060;BME280;5069;49.306;8.636;2022-10-31T06:55:26;100903.28;;;12.04;100.00
10060;BME280;5069;49.306;8.636;2022-10-31T06:58:28;100900.13;;;12.21;100.00
10060;BME280;5069;49.306;8.636;2022-10-31T07:01:33;100896.22;;;12.32;100.00
10060;BME280;5069;49.306;8.636;2022-10-31T07:04:35;100903.50;;;12.52;100.00
10060;BME280;5069;49.306;8.636;2022-10-31T07:07:37;100901.06;;;12.71;100.00
10060;BME280;5069;49.306;8.636;2022-10-31T07:10:40;100910.22;;;12.87;100.00
10060;BME280;5069;49.306;8.636;2022-10-31T07:13:43;100908.13;;;12.97;100.00
10060;BME280;5069;49.306;8.636;2022-10-31T07:16:49;100902.53;;;13.04;100.00
10060;BME280;5069;49.306;8.636;2022-10-31T07:19:56;100908.47;;;13.12;100.00
10060;BME280;5069;49.306;8.636;2022-10-31T07:22:58;100903.41;;;13.05;100.00
10060;BME280;5069;49.306;8.636;2022-10-31T07:26:00;100904.25;;;13.05;100.00
10060;BME280;5069;49.306;8.636;2022-10-31T07:29:12;100894.38;;;13.12;100.00
10060;BME280;5069;49.306;8.636;2022-10-31T07:32:13;100905.66;;;13.17;100.00
10060;BME280;5069;49.306;8.636;2022-10-31T07:35:23;100906.56;;;13.16;100.00
10060;BME280;5069;49.306;8.636;2022-10-31T07:38:31;100900.31;;;13.18;100.00
10060;BME280;5069;49.306;8.636;2022-10-31T07:41:37;100904.47;;;13.26;100.00
10060;BME280;5069;49.306;8.636;2022-10-31T07:44:38;100903.16;;;13.37;100.00
10060;BME280;5069;49.306;8.636;2022-10-31T07:48:03;100905.44;;;13.46;100.00
10060;BME280;5069;49.306;8.636;2022-10-31T07:51:40;100912.25;;;13.53;100.00
10060;BME280;5069;49.306;8.636;2022-10-31T07:55:06;100919.84;;;13.62;100.00
10060;BME280;5069;49.306;8.636;2022-10-31T07:58:14;100916.63;;;13.78;100.00
10060;BME280;5069;49.306;8.636;2022-10-31T08:01:16;100919.72;;;13.89;100.00
10060;BME280;5069;49.306;8.636;2022-10-31T08:04:27;100915.53;;;14.05;100.00
10060;BME280;5069;49.306;8.636;2022-10-31T08:07:47;100915.16;;;14.14;100.00
10060;BME280;5069;49.306;8.636;2022-10-31T08:10:54;100906.78;;;14.25;100.00
10060;BME280;5069;49.306;8.636;2022-10-31T08:13:56;100908.44;;;14.27;100.00
10060;BME280;5069;49.306;8.636;2022-10-31T08:16:57;100891.00;;;14.43;100.00
10060;BME280;5069;49.306;8.636;2022-10-31T08:20:07;100892.69;;;14.46;100.00
10060;BME280;5069;49.306;8.636;2022-10-31T08:23:16;100896.06;;;14.50;100.00
10060;BME280;5069;49.306;8.636;2022-10-31T08:26:19;100890.50;;;14.56;100.00
10060;BME280;5069;49.306;8.636;2022-10-31T08:29:24;100888.56;;;14.59;100.00
10060;BME280;5069;49.306;8.636;2022-10-31T08:32:26;100888.88;;;14.73;100.00
10060;BME280;5069;49.306;8.636;2022-10-31T08:36:05;100891.47;;;14.75;100.00
10060;BME280;5069;49.306;8.636;2022-10-31T08:39:28;100888.81;;;14.75;100.00
10060;BME280;5069;49.306;8.636;2022-10-31T08:42:29;100880.84;;;14.75;100.00
10060;BME280;5069;49.306;8.636;2022-10-31T08:45:33;100881.31;;;14.84;100.00
10060;BME280;5069;49.306;8.636;2022-10-31T08:48:35;100880.03;;;14.93;100.00
10060;BME280;5069;49.306;8.636;2022-10-31T08:51:37;100883.28;;;15.00;100.00
10060;BME280;5069;49.306;8.636;2022-10-31T08:54:39;100886.53;;;15.06;100.00
10060;BME280;5069;49.306;8.636;2022-10-31T08:57:59;100878.88;;;15.19;100.00
10060;BME280;5069;49.306;8.636;2022-10-31T09:01:09;100875.53;;;15.34;100.00
10060;BME280;5069;49.306;8.636;2022-10-31T09:04:11;100873.19;;;15.47;100.00
10060;BME280;5069;49.306;8.636;2022-10-31T09:07:13;100866.25;;;15.63;100.00
10060;BME280;5069;49.306;8.636;2022-10-31T09:10:23;100871.91;;;15.74;100.00
10060;BME280;5069;49.306;8.636;2022-10-31T09:13:25;100872.22;;;15.87;100.00
10060;BME280;5069;49.306;8.636;2022-10-31T09:17:06;100872.66;;;16.13;100.00
10060;BME280;5069;49.306;8.636;2022-10-31T09:20:25;100867.53;;;16.28;100.00
10060;BME280;5069;49.306;8.636;2022-10-31T09:23:27;100861.13;;;16.32;100.00
10060;BME280;5069;49.306;8.636;2022-10-31T09:26:29;100865.91;;;16.42;100.00
10060;BME280;5069;49.306;8.636;2022-10-31T09:29:38;100868.03;;;16.53;100.00
10060;BME280;5069;49.306;8.636;2022-10-31T09:32:44;100865.94;;;16.60;100.00
10060;BME280;5069;49.306;8.636;2022-10-31T09:35:46;100879.63;;;16.69;100.00
10060;BME280;5069;49.306;8.636;2022-10-31T09:38:47;100862.28;;;16.79;100.00
10060;BME280;5069;49.306;8.636;2022-10-31T09:42:09;100866.41;;;16.85;100.00
10060;BME280;5069;49.306;8.636;2022-10-31T09:45:28;100866.41;;;16.85;100.00
10060;BME280;5069;49.306;8.636;2022-10-31T09:48:49;100864.50;;;16.87;100.00
10060;BME280;5069;49.306;8.636;2022-10-31T09:52:21;100856.69;;;17.01;100.00
10060;BME280;5069;49.306;8.636;2022-10-31T09:55:35;100857.53;;;17.02;100.00
10060;BME280;5069;49.306;8.636;2022-10-31T09:58:46;100857.84;;;17.13;100.00
10060;BME280;5069;49.306;8.636;2022-10-31T10:01:53;100847.94;;;17.15;100.00
10060;BME280;5069;49.306;8.636;2022-10-31T10:04:59;100849.88;;;17.28;100.00
10060;BME280;5069;49.306;8.636;2022-10-31T10:08:10;100849.19;;;17.25;100.00
10060;BME280;5069;49.306;8.636;2022-10-31T10:12:04;100836.06;;;17.05;100.00
10060;BME280;5069;49.306;8.636;2022-10-31T10:18:43;100828.56;;;16.96;100.00
10060;BME280;5069;49.306;8.636;2022-10-31T10:21:50;100834.03;;;16.92;100.00
10060;BME280;5069;49.306;8.636;2022-10-31T10:25:24;100831.84;;;17.01;100.00
10060;BME280;5069;49.306;8.636;2022-10-31T10:28:30;100827.31;;;17.03;100.00
10060;BME280;5069;49.306;8.636;2022-10-31T10:31:41;100818.34;;;17.04;100.00
10060;BME280;5069;49.306;8.636;2022-10-31T10:34:48;100821.16;;;17.18;100.00
10060;BME280;5069;49.306;8.636;2022-10-31T10:38:50;100811.56;;;17.31;100.00
10060;BME280;5069;49.306;8.636;2022-10-31T10:41:22;100810.34;;;17.37;100.00
10060;BME280;5069;49.306;8.636;2022-10-31T10:44:24;100803.72;;;17.28;100.00
10060;BME280;5069;49.306;8.636;2022-10-31T10:47:54;100797.78;;;17.39;100.00
10060;BME280;5069;49.306;8.636;2022-10-31T10:51:01;100790.25;;;17.31;98.06
10060;BME280;5069;49.306;8.636;2022-10-31T10:54:21;100786.44;;;17.35;100.00
10060;BME280;5069;49.306;8.636;2022-10-31T10:58:03;100798.91;;;17.34;99.78
10060;BME280;5069;49.306;8.636;2022-10-31T11:01:13;100793.91;;;17.28;100.00
10060;BME280;5069;49.306;8.636;2022-10-31T11:04:28;100786.59;;;17.32;100.00
10060;BME280;5069;49.306;8.636;2022-10-31T11:07:38;100772.34;;;17.33;100.00
10060;BME280;5069;49.306;8.636;2022-10-31T11:10:41;100770.63;;;17.32;99.57
10060;BME280;5069;49.306;8.636;2022-10-31T11:13:44;100766.16;;;17.32;99.82
10060;BME280;5069;49.306;8.636;2022-10-31T11:16:49;100759.81;;;17.35;96.49
10060;BME280;5069;49.306;8.636;2022-10-31T11:20:04;100758.53;;;17.42;97.79
10060;BME280;5069;49.306;8.636;2022-10-31T11:23:26;100742.19;;;17.48;97.37
10060;BME280;5069;49.306;8.636;2022-10-31T11:26:27;100740.78;;;17.57;96.50
10060;BME280;5069;49.306;8.636;2022-10-31T11:29:29;100745.63;;;17.66;97.36
10060;BME280;5069;49.306;8.636;2022-10-31T11:32:30;100742.59;;;17.72;97.40
10060;BME280;5069;49.306;8.636;2022-10-31T11:35:32;100741.59;;;17.74;98.63
10060;BME280;5069;49.306;8.636;2022-10-31T11:38:39;100730.25;;;17.71;97.99
10060;BME280;5069;49.306;8.636;2022-10-31T11:41:42;100729.03;;;17.77;97.07
10060;BME280;5069;49.306;8.636;2022-10-31T11:44:43;100732.44;;;17.79;96.86
10060;BME280;5069;49.306;8.636;2022-10-31T11:47:50;100714.56;;;17.81;95.39
10060;BME280;5069;49.306;8.636;2022-10-31T11:51:00;100719.69;;;17.84;95.40
10060;BME280;5069;49.306;8.636;2022-10-31T11:54:03;100707.94;;;17.88;94.58
10060;BME280;5069;49.306;8.636;2022-10-31T11:57:05;100702.47;;;17.89;92.86
10060;BME280;5069;49.306;8.636;2022-10-31T12:06:34;100693.22;;;18.10;94.25
10060;BME280;5069;49.306;8.636;2022-10-31T12:09:38;100695.56;;;18.01;96.45
10060;BME280;5069;49.306;8.636;2022-10-31T12:15:50;100687.25;;;17.91;100.00
10060;BME280;5069;49.306;8.636;2022-10-31T12:19:29;100688.03;;;17.93;100.00
10060;BME280;5069;49.306;8.636;2022-10-31T12:22:52;100687.34;;;17.90;98.55
10060;BME280;5069;49.306;8.636;2022-10-31T12:26:31;100694.41;;;17.91;98.62
10060;BME280;5069;49.306;8.636;2022-10-31T12:30:09;100695.56;;;18.01;98.81
10060;BME280;5069;49.306;8.636;2022-10-31T12:33:21;100692.50;;;17.93;99.17
10060;BME280;5069;49.306;8.636;2022-10-31T12:36:53;100686.22;;;17.94;99.84
10060;BME280;5069;49.306;8.636;2022-10-31T12:54:50;100662.31;;;18.06;98.64
10060;BME280;5069;49.306;8.636;2022-10-31T12:58:03;100651.28;;;18.12;96.33
10060;BME280;5069;49.306;8.636;2022-10-31T13:01:38;100638.44;;;18.19;94.68
10060;BME280;5069;49.306;8.636;2022-10-31T13:04:47;100619.22;;;18.28;94.87
10060;BME280;5069;49.306;8.636;2022-10-31T13:07:57;100599.06;;;18.23;96.63
10060;BME280;5069;49.306;8.636;2022-10-31T13:14:37;100580.97;;;18.13;98.26
10060;BME280;5069;49.306;8.636;2022-10-31T13:17:45;100571.38;;;18.11;98.25
10060;BME280;5069;49.306;8.636;2022-10-31T13:20:48;100568.88;;;18.08;99.25
10060;BME280;5069;49.306;8.636;2022-10-31T13:23:59;100582.97;;;18.10;100.00
10060;BME280;5069;49.306;8.636;2022-10-31T13:27:11;100577.66;;;18.10;100.00
10060;BME280;5069;49.306;8.636;2022-10-31T13:30:17;100575.44;;;18.02;98.00
10060;BME280;5069;49.306;8.636;2022-10-31T13:33:27;100571.53;;;17.94;97.83
10060;BME280;5069;49.306;8.636;2022-10-31T13:36:32;100574.28;;;17.92;99.44
10060;BME280;5069;49.306;8.636;2022-10-31T13:39:50;100571.13;;;18.00;99.32
10060;BME280;5069;49.306;8.636;2022-10-31T13:43:13;100578.03;;;18.32;97.04
10060;BME280;5069;49.306;8.636;2022-10-31T13:52:35;100576.72;;;18.94;91.93
10060;BME280;5069;49.306;8.636;2022-10-31T13:55:42;100591.63;;;19.11;89.19
10060;BME280;5069;49.306;8.636;2022-10-31T13:59:05;100588.16;;;19.23;90.09
10060;BME280;5069;49.306;8.636;2022-10-31T14:02:24;100578.88;;;19.29;90.12
10060;BME280;5069;49.306;8.636;2022-10-31T14:05:30;100581.31;;;19.19;90.10
10060;BME280;5069;49.306;8.636;2022-10-31T14:08:34;100581.50;;;19.16;90.40
10060;BME280;5069;49.306;8.636;2022-10-31T14:11:37;100578.88;;;19.02;90.81
10060;BME280;5069;49.306;8.636;2022-10-31T14:14:46;100573.13;;;18.81;92.30
10060;BME280;5069;49.306;8.636;2022-10-31T14:18:02;100575.53;;;18.72;93.43
10060;BME280;5069;49.306;8.636;2022-10-31T14:30:29;100555.53;;;18.50;95.63
10060;BME280;5069;49.306;8.636;2022-10-31T14:33:34;100550.19;;;18.36;96.09
10060;BME280;5069;49.306;8.636;2022-10-31T14:40:06;100546.75;;;18.20;97.81
10060;BME280;5069;49.306;8.636;2022-10-31T14:43:30;100540.94;;;18.13;98.79
10060;BME280;5069;49.306;8.636;2022-10-31T14:50:20;100538.97;;;18.03;100.00
10060;BME280;5069;49.306;8.636;2022-10-31T14:53:33;100540.69;;;18.04;100.00
10060;BME280;5069;49.306;8.636;2022-10-31T14:56:37;100541.06;;;17.98;100.00
10060;BME280;5069;49.306;8.636;2022-10-31T14:59:47;100553.72;;;18.08;100.00
10060;BME280;5069;49.306;8.636;2022-10-31T15:03:03;100564.97;;;18.28;99.71
10060;BME280;5069;49.306;8.636;2022-10-31T15:06:12;100554.78;;;18.20;99.25
10060;BME280;5069;49.306;8.636;2022-10-31T15:09:25;100548.88;;;18.15;99.51
10060;BME280;5069;49.306;8.636;2022-10-31T15:12:33;100549.25;;;18.09;100.00
10060;BME280;5069;49.306;8.636;2022-10-31T15:15:35;100527.91;;;18.09;100.00
10060;BME280;5069;49.306;8.636;2022-10-31T15:18:44;100526.00;;;18.11;100.00
10060;BME280;5069;49.306;8.636;2022-10-31T15:21:47;100528.56;;;18.12;100.00
10060;BME280;5069;49.306;8.636;2022-10-31T15:24:51;100512.47;;;18.14;100.00
10060;BME280;5069;49.306;8.636;2022-10-31T15:27:57;100506.91;;;18.17;100.00
10060;BME280;5069;49.306;8.636;2022-10-31T15:31:01;100504.66;;;18.11;100.00
10060;BME280;5069;49.306;8.636;2022-10-31T15:34:15;100488.66;;;18.11;100.00
10060;BME280;5069;49.306;8.636;2022-10-31T15:37:22;100473.69;;;18.08;100.00
10060;BME280;5069;49.306;8.636;2022-10-31T15:40:26;100478.38;;;18.05;100.00
10060;BME280;5069;49.306;8.636;2022-10-31T15:43:34;100482.56;;;17.95;100.00
10060;BME280;5069;49.306;8.636;2022-10-31T15:46:37;100472.25;;;17.89;100.00
10060;BME280;5069;49.306;8.636;2022-10-31T15:49:40;100468.09;;;17.85;100.00
10060;BME280;5069;49.306;8.636;2022-10-31T15:52:44;100456.56;;;17.84;100.00
10060;BME280;5069;49.306;8.636;2022-10-31T15:55:53;100443.59;;;17.78;100.00
10060;BME280;5069;49.306;8.636;2022-10-31T15:58:57;100424.47;;;17.71;100.00
10060;BME280;5069;49.306;8.636;2022-10-31T16:02:01;100423.72;;;17.69;100.00
10060;BME280;5069;49.306;8.636;2022-10-31T16:05:16;100418.56;;;17.66;100.00
10060;BME280;5069;49.306;8.636;2022-10-31T16:08:25;100418.56;;;17.66;100.00
10060;BME280;5069;49.306;8.636;2022-10-31T16:11:38;100400.69;;;17.68;100.00
10060;BME280;5069;49.306;8.636;2022-10-31T16:14:41;100375.16;;;17.64;100.00
10060;BME280;5069;49.306;8.636;2022-10-31T16:17:45;100357.16;;;17.54;100.00
10060;BME280;5069;49.306;8.636;2022-10-31T16:20:52;100358.66;;;17.44;100.00
10060;BME280;5069;49.306;8.636;2022-10-31T16:24:03;100375.88;;;17.38;100.00
10060;BME280;5069;49.306;8.636;2022-10-31T16:27:17;100391.13;;;17.36;100.00
10060;BME280;5069;49.306;8.636;2022-10-31T16:30:35;100399.31;;;17.33;100.00
10060;BME280;5069;49.306;8.636;2022-10-31T16:33:39;100417.38;;;17.28;100.00
10060;BME280;5069;49.306;8.636;2022-10-31T16:36:42;100410.34;;;17.27;100.00
10060;BME280;5069;49.306;8.636;2022-10-31T16:39:44;100411.75;;;17.32;100.00
10060;BME280;5069;49.306;8.636;2022-10-31T16:42:45;100437.75;;;17.43;100.00
10060;BME280;5069;49.306;8.636;2022-10-31T16:45:51;100463.09;;;17.36;100.00
10060;BME280;5069;49.306;8.636;2022-10-31T16:48:53;100483.59;;;17.20;100.00
10060;BME280;5069;49.306;8.636;2022-10-31T16:51:55;100470.03;;;17.09;100.00
10060;BME280;5069;49.306;8.636;2022-10-31T16:54:56;100454.25;;;17.06;100.00
10060;BME280;5069;49.306;8.636;2022-10-31T16:57:58;100443.41;;;17.09;100.00
10060;BME280;5069;49.306;8.636;2022-10-31T17:01:01;100455.47;;;17.00;100.00
10060;BME280;5069;49.306;8.636;2022-10-31T17:04:03;100444.50;;;16.90;100.00
10060;BME280;5069;49.306;8.636;2022-10-31T17:07:04;100417.69;;;16.93;100.00
10060;BME280;5069;49.306;8.636;2022-10-31T17:10:07;100408.19;;;16.89;100.00
10060;BME280;5069;49.306;8.636;2022-10-31T17:13:18;100422.25;;;16.91;100.00
10060;BME280;5069;49.306;8.636;2022-10-31T17:16:21;100410.28;;;16.99;100.00
10060;BME280;5069;49.306;8.636;2022-10-31T17:19:22;100401.19;;;17.03;100.00
10060;BME280;5069;49.306;8.636;2022-10-31T17:22:24;100412.19;;;16.97;100.00
10060;BME280;5069;49.306;8.636;2022-10-31T17:25:28;100406.88;;;16.97;100.00
10060;BME280;5069;49.306;8.636;2022-10-31T17:28:30;100411.41;;;16.94;100.00
10060;BME280;5069;49.306;8.636;2022-10-31T17:31:33;100394.88;;;16.89;100.00
10060;BME280;5069;49.306;8.636;2022-10-31T17:34:36;100395.88;;;16.87;100.00
10060;BME280;5069;49.306;8.636;2022-10-31T17:37:38;100394.28;;;16.84;100.00
10060;BME280;5069;49.306;8.636;2022-10-31T17:40:41;100382.19;;;16.79;100.00
10060;BME280;5069;49.306;8.636;2022-10-31T17:43:43;100375.81;;;16.81;100.00